sensor_id;sensor_type;location;lat;lon;timestamp;pressure;altitude;pressure_sealevel;temperature;humidity
84855;BME280;75112;42.668;23.356;2024-01-30T00:01:40;97186.84;;;0.07;59.93
84855;BME280;75112;42.668;23.356;2024-01-30T00:04:06;97206.69;;;0.43;59.58
84855;BME280;75112;42.668;23.356;2024-01-30T00:06:31;97204.63;;;0.35;59.32
84855;BME280;75112;42.668;23.356;2024-01-30T00:08:57;97205.63;;;0.33;59.21
84855;BME280;75112;42.668;23.356;2024-01-30T00:11:22;97185.00;;;0.23;59.49
84855;BME280;75112;42.668;23.356;2024-01-30T00:13:48;97216.38;;;0.23;59.49
84855;BME280;75112;42.668;23.356;2024-01-30T00:16:24;97199.41;;;0.10;59.49
84855;BME280;75112;42.668;23.356;2024-01-30T00:18:50;97213.56;;;0.14;60.97
84855;BME280;75112;42.668;23.356;2024-01-30T00:21:16;97219.47;;;0.14;61.11
84855;BME280;75112;42.668;23.356;2024-01-30T00:23:41;97206.81;;;0.27;59.50
84855;BME280;75112;42.668;23.356;2024-01-30T00:26:07;97216.00;;;0.30;58.79
84855;BME280;75112;42.668;23.356;2024-01-30T00:28:32;97208.28;;;0.03;59.96
84855;BME280;75112;42.668;23.356;2024-01-30T00:30:57;97220.56;;;0.10;60.01
84855;BME280;75112;42.668;23.356;2024-01-30T00:33:23;97203.19;;;0.03;59.83
84855;BME280;75112;42.668;23.356;2024-01-30T00:35:48;97219.94;;;-0.08;60.79
84855;BME280;75112;42.668;23.356;2024-01-30T00:38:13;97213.66;;;-0.16;61.36
84855;BME280;75112;42.668;23.356;2024-01-30T00:40:39;97208.66;;;-0.32;61.96
84855;BME280;75112;42.668;23.356;2024-01-30T00:43:04;97202.94;;;-0.21;61.34
84855;BME280;75112;42.668;23.356;2024-01-30T00:45:30;97214.75;;;-0.20;61.97
84855;BME280;75112;42.668;23.356;2024-01-30T00:47:55;97210.66;;;-0.23;62.72
84855;BME280;75112;42.668;23.356;2024-01-30T00:50:20;97196.50;;;-0.27;62.47
84855;BME280;75112;42.668;23.356;2024-01-30T00:52:46;97204.47;;;-0.33;63.56
84855;BME280;75112;42.668;23.356;2024-01-30T00:55:11;97200.47;;;-0.23;63.09
84855;BME280;75112;42.668;23.356;2024-01-30T00:57:37;97214.22;;;-0.11;61.65
84855;BME280;75112;42.668;23.356;2024-01-30T01:00:03;97206.56;;;-0.26;62.14
84855;BME280;75112;42.668;23.356;2024-01-30T01:02:30;97207.47;;;-0.27;61.77
84855;BME280;75112;42.668;23.356;2024-01-30T01:04:55;97202.47;;;-0.28;62.93
84855;BME280;75112;42.668;23.356;2024-01-30T01:07:21;97210.09;;;-0.42;62.97
84855;BME280;75112;42.668;23.356;2024-01-30T01:09:46;97195.47;;;-0.39;62.60
84855;BME280;75112;42.668;23.356;2024-01-30T01:12:13;97196.81;;;-0.48;63.76
84855;BME280;75112;42.668;23.356;2024-01-30T01:14:38;97201.72;;;-0.44;63.54
84855;BME280;75112;42.668;23.356;2024-01-30T01:17:04;97214.28;;;-0.41;63.89
84855;BME280;75112;42.668;23.356;2024-01-30T01:19:29;97206.75;;;-0.43;63.30
84855;BME280;75112;42.668;23.356;2024-01-30T01:21:54;97214.00;;;-0.51;64.08
84855;BME280;75112;42.668;23.356;2024-01-30T01:24:20;97199.72;;;-0.54;63.94
84855;BME280;75112;42.668;23.356;2024-01-30T01:26:45;97210.00;;;-0.41;63.37
84855;BME280;75112;42.668;23.356;2024-01-30T01:29:11;97211.16;;;-0.47;63.89
84855;BME280;75112;42.668;23.356;2024-01-30T01:31:37;97215.16;;;-0.57;64.03
84855;BME280;75112;42.668;23.356;2024-01-30T01:34:12;97204.28;;;-0.44;63.07
84855;BME280;75112;42.668;23.356;2024-01-30T01:36:38;97210.19;;;-0.44;63.39
84855;BME280;75112;42.668;23.356;2024-01-30T01:39:04;97205.72;;;-0.55;62.87
84855;BME280;75112;42.668;23.356;2024-01-30T01:41:30;97213.88;;;-0.64;63.85
84855;BME280;75112;42.668;23.356;2024-01-30T01:43:57;97213.88;;;-0.64;63.90
84855;BME280;75112;42.668;23.356;2024-01-30T01:46:22;97218.25;;;-0.52;63.41
84855;BME280;75112;42.668;23.356;2024-01-30T01:48:48;97212.22;;;-0.65;64.02
84855;BME280;75112;42.668;23.356;2024-01-30T01:51:14;97206.16;;;-0.62;63.58
84855;BME280;75112;42.668;23.356;2024-01-30T01:53:40;97212.22;;;-0.65;63.88
84855;BME280;75112;42.668;23.356;2024-01-30T01:56:06;97218.56;;;-0.72;63.69
84855;BME280;75112;42.668;23.356;2024-01-30T01:58:32;97211.63;;;-0.84;64.56
84855;BME280;75112;42.668;23.356;2024-01-30T02:00:58;97219.56;;;-0.75;64.52
84855;BME280;75112;42.668;23.356;2024-01-30T02:03:24;97221.28;;;-0.75;64.69
84855;BME280;75112;42.668;23.356;2024-01-30T02:05:53;97222.56;;;-0.68;64.74
84855;BME280;75112;42.668;23.356;2024-01-30T02:08:20;97221.84;;;-0.70;64.57
84855;BME280;75112;42.668;23.356;2024-01-30T02:10:45;97221.06;;;-0.86;65.32
84855;BME280;75112;42.668;23.356;2024-01-30T02:13:10;97229.00;;;-0.77;64.98
84855;BME280;75112;42.668;23.356;2024-01-30T02:15:36;97212.91;;;-0.77;64.82
84855;BME280;75112;42.668;23.356;2024-01-30T02:18:01;97221.16;;;-0.58;63.68
84855;BME280;75112;42.668;23.356;2024-01-30T02:20:28;97216.44;;;-0.50;63.52
84855;BME280;75112;42.668;23.356;2024-01-30T02:22:55;97204.97;;;-0.57;64.08
84855;BME280;75112;42.668;23.356;2024-01-30T02:25:42;97224.91;;;-0.35;63.27
84855;BME280;75112;42.668;23.356;2024-01-30T02:28:11;97217.03;;;-0.30;63.47
84855;BME280;75112;42.668;23.356;2024-01-30T02:30:40;97215.00;;;-0.39;63.72
84855;BME280;75112;42.668;23.356;2024-01-30T02:33:07;97207.09;;;-0.35;64.39
84855;BME280;75112;42.668;23.356;2024-01-30T02:35:33;97206.66;;;-0.27;63.69
84855;BME280;75112;42.668;23.356;2024-01-30T02:37:59;97164.19;;;-0.70;64.14
84855;BME280;75112;42.668;23.356;2024-01-30T02:40:25;97209.00;;;-0.38;63.65
84855;BME280;75112;42.668;23.356;2024-01-30T02:42:50;97188.09;;;-0.43;62.79
84855;BME280;75112;42.668;23.356;2024-01-30T02:45:16;97215.53;;;-0.34;63.39
84855;BME280;75112;42.668;23.356;2024-01-30T02:47:42;97218.13;;;-0.20;63.19
84855;BME280;75112;42.668;23.356;2024-01-30T02:50:07;97221.84;;;-0.11;62.55
84855;BME280;75112;42.668;23.356;2024-01-30T02:52:33;97216.13;;;-0.15;63.16
84855;BME280;75112;42.668;23.356;2024-01-30T02:54:59;97218.22;;;-0.21;63.37
84855;BME280;75112;42.668;23.356;2024-01-30T02:57:26;97218.56;;;-0.13;63.41
84855;BME280;75112;42.668;23.356;2024-01-30T02:59:51;97219.56;;;-0.16;62.97
84855;BME280;75112;42.668;23.356;2024-01-30T03:02:17;97215.66;;;-0.07;61.77
84855;BME280;75112;42.668;23.356;2024-01-30T03:04:42;97221.84;;;-0.11;62.08
84855;BME280;75112;42.668;23.356;2024-01-30T03:07:08;97214.94;;;-0.09;62.42
84855;BME280;75112;42.668;23.356;2024-01-30T03:09:34;97211.41;;;-0.21;62.46
84855;BME280;75112;42.668;23.356;2024-01-30T03:12:00;97199.31;;;-0.17;62.05
84855;BME280;75112;42.668;23.356;2024-01-30T03:14:26;97205.47;;;0.07;60.54
84855;BME280;75112;42.668;23.356;2024-01-30T03:16:51;97213.47;;;-0.13;60.54
84855;BME280;75112;42.668;23.356;2024-01-30T03:19:17;97215.38;;;-0.31;61.34
84855;BME280;75112;42.668;23.356;2024-01-30T03:21:42;97212.84;;;-0.17;62.06
84855;BME280;75112;42.668;23.356;2024-01-30T03:24:07;97205.59;;;-0.09;60.86
84855;BME280;75112;42.668;23.356;2024-01-30T03:26:33;97209.09;;;-0.26;61.35
84855;BME280;75112;42.668;23.356;2024-01-30T03:28:58;97212.56;;;-0.27;61.28
84855;BME280;75112;42.668;23.356;2024-01-30T03:31:23;97208.69;;;-0.18;60.62
84855;BME280;75112;42.668;23.356;2024-01-30T03:33:49;97208.66;;;-0.04;61.56
84855;BME280;75112;42.668;23.356;2024-01-30T03:36:15;97195.81;;;-0.45;63.03
84855;BME280;75112;42.668;23.356;2024-01-30T03:38:41;97204.44;;;-0.48;63.10
84855;BME280;75112;42.668;23.356;2024-01-30T03:41:09;97202.84;;;-0.20;61.68
84855;BME280;75112;42.668;23.356;2024-01-30T03:43:35;97202.03;;;-0.06;60.87
84855;BME280;75112;42.668;23.356;2024-01-30T03:46:01;97198.22;;;-0.13;60.57
84855;BME280;75112;42.668;23.356;2024-01-30T03:48:27;97197.22;;;-0.11;61.12
84855;BME280;75112;42.668;23.356;2024-01-30T03:50:52;97195.03;;;-0.03;60.92
84855;BME280;75112;42.668;23.356;2024-01-30T03:53:18;97193.75;;;-0.10;61.64
84855;BME280;75112;42.668;23.356;2024-01-30T03:55:43;97178.41;;;-0.08;59.90
84855;BME280;75112;42.668;23.356;2024-01-30T03:58:09;97189.59;;;0.04;60.41
84855;BME280;75112;42.668;23.356;2024-01-30T04:00:34;97185.94;;;-0.07;59.85
84855;BME280;75112;42.668;23.356;2024-01-30T04:03:00;97180.41;;;-0.28;60.80
84855;BME280;75112;42.668;23.356;2024-01-30T04:05:25;97189.13;;;-0.17;61.48
84855;BME280;75112;42.668;23.356;2024-01-30T04:07:51;97188.09;;;-0.01;61.51
84855;BME280;75112;42.668;23.356;2024-01-30T04:10:16;97185.66;;;-0.02;60.39
84855;BME280;75112;42.668;23.356;2024-01-30T04:12:41;97189.75;;;0.01;61.30
84855;BME280;75112;42.668;23.356;2024-01-30T04:15:07;97188.28;;;-0.04;60.49
84855;BME280;75112;42.668;23.356;2024-01-30T04:17:33;97181.94;;;-0.11;60.73
84855;BME280;75112;42.668;23.356;2024-01-30T04:19:59;97186.03;;;-0.08;60.77
84855;BME280;75112;42.668;23.356;2024-01-30T04:22:24;97167.66;;;-0.13;60.83
84855;BME280;75112;42.668;23.356;2024-01-30T04:24:49;97192.69;;;-0.06;60.19
84855;BME280;75112;42.668;23.356;2024-01-30T04:27:15;97191.84;;;-0.20;61.00
84855;BME280;75112;42.668;23.356;2024-01-30T04:29:40;97190.94;;;-0.19;60.95
84855;BME280;75112;42.668;23.356;2024-01-30T04:32:06;97177.03;;;-0.14;60.58
84855;BME280;75112;42.668;23.356;2024-01-30T04:34:31;97207.38;;;-0.11;61.45
84855;BME280;75112;42.668;23.356;2024-01-30T04:36:57;97203.84;;;-0.08;61.56
84855;BME280;75112;42.668;23.356;2024-01-30T04:39:22;97201.03;;;-0.18;60.67
84855;BME280;75112;42.668;23.356;2024-01-30T04:41:48;97204.66;;;-0.22;61.08
84855;BME280;75112;42.668;23.356;2024-01-30T04:44:13;97207.75;;;-0.17;60.36
84855;BME280;75112;42.668;23.356;2024-01-30T04:46:39;97205.19;;;-0.31;61.29
84855;BME280;75112;42.668;23.356;2024-01-30T04:49:04;97205.84;;;-0.28;60.52
84855;BME280;75112;42.668;23.356;2024-01-30T04:51:30;97198.94;;;-0.26;59.64
84855;BME280;75112;42.668;23.356;2024-01-30T04:53:55;97205.75;;;-0.26;59.95
84855;BME280;75112;42.668;23.356;2024-01-30T04:56:21;97212.66;;;-0.28;60.13
84855;BME280;75112;42.668;23.356;2024-01-30T04:58:46;97213.72;;;-0.47;59.74
84855;BME280;75112;42.668;23.356;2024-01-30T05:01:16;97225.63;;;-0.47;60.11
84855;BME280;75112;42.668;23.356;2024-01-30T05:03:41;97222.66;;;-0.39;60.14
84855;BME280;75112;42.668;23.356;2024-01-30T05:06:07;97222.47;;;-0.36;59.84
84855;BME280;75112;42.668;23.356;2024-01-30T05:08:32;97226.94;;;-0.56;61.68
84855;BME280;75112;42.668;23.356;2024-01-30T05:11:00;97221.16;;;-0.43;60.80
84855;BME280;75112;42.668;23.356;2024-01-30T05:13:25;97226.25;;;-0.43;60.46
84855;BME280;75112;42.668;23.356;2024-01-30T05:15:51;97226.59;;;-0.50;59.40
84855;BME280;75112;42.668;23.356;2024-01-30T05:18:16;97226.59;;;-0.64;60.22
84855;BME280;75112;42.668;23.356;2024-01-30T05:20:42;97227.91;;;-0.42;58.84
84855;BME280;75112;42.668;23.356;2024-01-30T05:23:07;97225.91;;;-0.37;57.50
84855;BME280;75112;42.668;23.356;2024-01-30T05:25:33;97225.97;;;-0.53;58.25
84855;BME280;75112;42.668;23.356;2024-01-30T05:27:58;97230.25;;;-0.54;58.99
84855;BME280;75112;42.668;23.356;2024-01-30T05:30:24;97222.31;;;-0.63;59.41
84855;BME280;75112;42.668;23.356;2024-01-30T05:32:49;97225.44;;;-0.44;58.78
84855;BME280;75112;42.668;23.356;2024-01-30T05:35:15;97228.25;;;-0.49;58.85
84855;BME280;75112;42.668;23.356;2024-01-30T05:37:40;97218.91;;;-0.48;58.43
84855;BME280;75112;42.668;23.356;2024-01-30T05:40:06;97228.25;;;-0.34;56.98
84855;BME280;75112;42.668;23.356;2024-01-30T05:42:38;97229.75;;;-0.30;57.64
84855;BME280;75112;42.668;23.356;2024-01-30T05:45:03;97228.44;;;-0.52;58.64
84855;BME280;75112;42.668;23.356;2024-01-30T05:47:30;97221.34;;;-0.47;58.30
84855;BME280;75112;42.668;23.356;2024-01-30T05:49:56;97219.53;;;-0.44;58.28
84855;BME280;75112;42.668;23.356;2024-01-30T05:52:21;97220.19;;;-0.71;59.56
84855;BME280;75112;42.668;23.356;2024-01-30T05:54:49;97221.31;;;-0.61;59.40
84855;BME280;75112;42.668;23.356;2024-01-30T05:57:14;97236.19;;;-0.39;58.77
84855;BME280;75112;42.668;23.356;2024-01-30T05:59:40;97225.50;;;-0.60;60.83
84855;BME280;75112;42.668;23.356;2024-01-30T06:02:05;97229.47;;;-0.70;61.73
84855;BME280;75112;42.668;23.356;2024-01-30T06:04:30;97233.56;;;-0.67;60.54
84855;BME280;75112;42.668;23.356;2024-01-30T06:06:56;97229.56;;;-0.72;61.47
84855;BME280;75112;42.668;23.356;2024-01-30T06:09:21;97227.97;;;-0.58;62.19
84855;BME280;75112;42.668;23.356;2024-01-30T06:11:47;97234.97;;;-0.48;62.42
84855;BME280;75112;42.668;23.356;2024-01-30T06:14:12;97241.91;;;-0.65;62.50
84855;BME280;75112;42.668;23.356;2024-01-30T06:16:38;97238.97;;;-0.58;61.33
84855;BME280;75112;42.668;23.356;2024-01-30T06:19:03;97224.44;;;-0.86;62.95
84855;BME280;75112;42.668;23.356;2024-01-30T06:21:29;97237.47;;;-0.62;62.10
84855;BME280;75112;42.668;23.356;2024-01-30T06:23:55;97239.78;;;-0.57;62.70
84855;BME280;75112;42.668;23.356;2024-01-30T06:26:21;97230.19;;;-0.68;63.07
84855;BME280;75112;42.668;23.356;2024-01-30T06:28:55;97240.16;;;-0.49;62.50
84855;BME280;75112;42.668;23.356;2024-01-30T06:31:21;97231.19;;;-0.26;61.33
84855;BME280;75112;42.668;23.356;2024-01-30T06:33:49;97226.19;;;1.38;55.31
84855;BME280;75112;42.668;23.356;2024-01-30T06:36:15;97241.44;;;2.79;53.37
84855;BME280;75112;42.668;23.356;2024-01-30T06:38:41;97218.66;;;3.92;49.02
84855;BME280;75112;42.668;23.356;2024-01-30T06:41:06;97218.28;;;5.08;45.42
84855;BME280;75112;42.668;23.356;2024-01-30T06:43:32;97229.78;;;6.39;43.16
84855;BME280;75112;42.668;23.356;2024-01-30T06:45:57;97223.16;;;7.65;39.15
84855;BME280;75112;42.668;23.356;2024-01-30T06:48:23;97230.56;;;8.71;36.33
84855;BME280;75112;42.668;23.356;2024-01-30T06:50:48;97219.78;;;9.65;34.42
84855;BME280;75112;42.668;23.356;2024-01-30T06:53:17;97214.66;;;10.00;32.34
84855;BME280;75112;42.668;23.356;2024-01-30T06:55:42;97223.53;;;9.97;33.19
84855;BME280;75112;42.668;23.356;2024-01-30T06:58:08;97174.56;;;10.80;28.20
84855;BME280;75112;42.668;23.356;2024-01-30T07:00:33;97216.59;;;11.66;27.28
84855;BME280;75112;42.668;23.356;2024-01-30T07:02:59;97236.69;;;12.05;28.61
84855;BME280;75112;42.668;23.356;2024-01-30T07:05:24;97237.81;;;13.28;26.59
84855;BME280;75112;42.668;23.356;2024-01-30T07:07:51;97213.78;;;12.16;27.19
84855;BME280;75112;42.668;23.356;2024-01-30T07:10:16;97208.81;;;11.74;28.78
84855;BME280;75112;42.668;23.356;2024-01-30T07:12:42;97227.44;;;11.37;27.89
84855;BME280;75112;42.668;23.356;2024-01-30T07:15:07;97227.88;;;13.01;27.40
84855;BME280;75112;42.668;23.356;2024-01-30T07:17:34;97223.13;;;13.35;24.77
84855;BME280;75112;42.668;23.356;2024-01-30T07:20:00;97208.47;;;11.93;25.97
84855;BME280;75112;42.668;23.356;2024-01-30T07:22:25;97238.28;;;8.44;30.44
84855;BME280;75112;42.668;23.356;2024-01-30T07:24:51;97228.19;;;10.46;28.83
84855;BME280;75112;42.668;23.356;2024-01-30T07:27:17;97231.63;;;10.54;28.80
84855;BME280;75112;42.668;23.356;2024-01-30T07:29:43;97208.91;;;12.61;24.19
84855;BME280;75112;42.668;23.356;2024-01-30T07:32:09;97224.22;;;9.73;30.13
84855;BME280;75112;42.668;23.356;2024-01-30T07:34:34;97222.19;;;10.88;28.10
84855;BME280;75112;42.668;23.356;2024-01-30T07:36:59;97222.94;;;9.33;29.77
84855;BME280;75112;42.668;23.356;2024-01-30T07:39:25;97216.09;;;9.50;27.87
84855;BME280;75112;42.668;23.356;2024-01-30T07:41:50;97224.44;;;8.72;28.59
84855;BME280;75112;42.668;23.356;2024-01-30T07:44:15;97210.47;;;7.91;31.38
84855;BME280;75112;42.668;23.356;2024-01-30T07:46:42;97221.28;;;8.51;31.63
84855;BME280;75112;42.668;23.356;2024-01-30T07:49:07;97210.53;;;6.84;32.23
84855;BME280;75112;42.668;23.356;2024-01-30T07:51:33;97231.44;;;5.68;36.05
84855;BME280;75112;42.668;23.356;2024-01-30T07:53:58;97225.59;;;7.08;34.76
84855;BME280;75112;42.668;23.356;2024-01-30T07:56:24;97225.47;;;7.09;33.52
84855;BME280;75112;42.668;23.356;2024-01-30T07:58:49;97213.25;;;7.41;31.62
84855;BME280;75112;42.668;23.356;2024-01-30T08:01:15;97225.34;;;7.30;32.97
84855;BME280;75112;42.668;23.356;2024-01-30T08:03:41;97226.94;;;6.92;34.69
84855;BME280;75112;42.668;23.356;2024-01-30T08:06:07;97218.00;;;7.55;33.22
84855;BME280;75112;42.668;23.356;2024-01-30T08:08:32;97215.31;;;6.08;34.90
84855;BME280;75112;42.668;23.356;2024-01-30T08:10:58;97222.63;;;5.28;37.05
84855;BME280;75112;42.668;23.356;2024-01-30T08:13:24;97226.00;;;5.61;37.52
84855;BME280;75112;42.668;23.356;2024-01-30T08:15:49;97201.72;;;5.75;37.57
84855;BME280;75112;42.668;23.356;2024-01-30T08:18:15;97200.09;;;5.53;36.84
84855;BME280;75112;42.668;23.356;2024-01-30T08:20:40;97225.28;;;3.84;39.53
84855;BME280;75112;42.668;23.356;2024-01-30T08:23:05;97219.63;;;4.14;40.24
84855;BME280;75112;42.668;23.356;2024-01-30T08:25:31;97214.56;;;4.57;38.51
84855;BME280;75112;42.668;23.356;2024-01-30T08:27:56;97217.03;;;5.02;37.59
84855;BME280;75112;42.668;23.356;2024-01-30T08:30:22;97226.41;;;5.24;37.05
84855;BME280;75112;42.668;23.356;2024-01-30T08:32:48;97232.44;;;5.56;36.88
84855;BME280;75112;42.668;23.356;2024-01-30T08:35:13;97223.41;;;5.61;35.73
84855;BME280;75112;42.668;23.356;2024-01-30T08:37:41;97232.50;;;6.07;35.63
84855;BME280;75112;42.668;23.356;2024-01-30T08:40:07;97230.41;;;6.22;36.20
84855;BME280;75112;42.668;23.356;2024-01-30T08:42:33;97230.25;;;6.54;35.70
84855;BME280;75112;42.668;23.356;2024-01-30T08:44:59;97201.22;;;6.42;36.20
84855;BME280;75112;42.668;23.356;2024-01-30T08:47:25;97221.44;;;6.16;34.77
84855;BME280;75112;42.668;23.356;2024-01-30T08:49:51;97237.19;;;5.81;36.24
84855;BME280;75112;42.668;23.356;2024-01-30T08:52:17;97245.53;;;4.88;37.29
84855;BME280;75112;42.668;23.356;2024-01-30T08:54:42;97240.63;;;4.74;38.36
84855;BME280;75112;42.668;23.356;2024-01-30T08:57:08;97240.09;;;4.59;38.31
84855;BME280;75112;42.668;23.356;2024-01-30T08:59:36;97239.06;;;4.50;38.73
84855;BME280;75112;42.668;23.356;2024-01-30T09:02:04;97233.56;;;3.99;39.59
84855;BME280;75112;42.668;23.356;2024-01-30T09:04:32;97247.78;;;3.91;40.14
84855;BME280;75112;42.668;23.356;2024-01-30T09:06:58;97234.75;;;3.95;40.78
84855;BME280;75112;42.668;23.356;2024-01-30T09:09:23;97253.00;;;3.90;40.83
84855;BME280;75112;42.668;23.356;2024-01-30T09:11:49;97237.31;;;4.17;40.46
84855;BME280;75112;42.668;23.356;2024-01-30T09:14:14;97220.63;;;4.00;39.38
84855;BME280;75112;42.668;23.356;2024-01-30T09:16:40;97233.69;;;4.53;39.08
84855;BME280;75112;42.668;23.356;2024-01-30T09:19:05;97231.06;;;5.19;39.37
84855;BME280;75112;42.668;23.356;2024-01-30T09:21:34;97231.47;;;5.36;38.34
84855;BME280;75112;42.668;23.356;2024-01-30T09:24:03;97234.03;;;5.03;39.10
84855;BME280;75112;42.668;23.356;2024-01-30T09:26:31;97216.91;;;5.36;38.13
84855;BME280;75112;42.668;23.356;2024-01-30T09:28:57;97218.44;;;5.27;36.99
84855;BME280;75112;42.668;23.356;2024-01-30T09:31:22;97220.19;;;5.90;36.27
84855;BME280;75112;42.668;23.356;2024-01-30T09:33:47;97211.84;;;5.14;39.10
84855;BME280;75112;42.668;23.356;2024-01-30T09:36:14;97224.72;;;5.35;38.39
84855;BME280;75112;42.668;23.356;2024-01-30T09:38:40;97209.44;;;5.96;38.58
84855;BME280;75112;42.668;23.356;2024-01-30T09:41:09;97211.69;;;5.47;37.93
84855;BME280;75112;42.668;23.356;2024-01-30T09:43:37;97195.78;;;4.68;40.63
84855;BME280;75112;42.668;23.356;2024-01-30T09:46:04;97191.72;;;4.43;40.87
84855;BME280;75112;42.668;23.356;2024-01-30T09:48:32;97191.78;;;5.40;40.04
84855;BME280;75112;42.668;23.356;2024-01-30T09:51:00;97187.81;;;5.57;39.63
84855;BME280;75112;42.668;23.356;2024-01-30T09:53:26;97215.00;;;5.80;39.17
84855;BME280;75112;42.668;23.356;2024-01-30T09:55:54;97146.22;;;5.00;39.84
84855;BME280;75112;42.668;23.356;2024-01-30T09:58:19;97201.50;;;4.72;41.55
84855;BME280;75112;42.668;23.356;2024-01-30T10:00:45;97180.25;;;3.92;41.15
84855;BME280;75112;42.668;23.356;2024-01-30T10:03:10;97224.38;;;4.41;41.63
84855;BME280;75112;42.668;23.356;2024-01-30T10:05:36;97209.44;;;5.33;41.15
84855;BME280;75112;42.668;23.356;2024-01-30T10:08:08;97205.72;;;5.89;38.93
84855;BME280;75112;42.668;23.356;2024-01-30T10:10:34;97197.59;;;5.63;39.55
84855;BME280;75112;42.668;23.356;2024-01-30T10:13:00;97182.81;;;5.34;38.97
84855;BME280;75112;42.668;23.356;2024-01-30T10:15:28;97191.03;;;5.70;39.26
84855;BME280;75112;42.668;23.356;2024-01-30T10:17:53;97194.28;;;5.93;38.97
84855;BME280;75112;42.668;23.356;2024-01-30T10:20:18;97202.28;;;5.99;37.74
84855;BME280;75112;42.668;23.356;2024-01-30T10:22:45;97198.81;;;6.51;38.09
84855;BME280;75112;42.668;23.356;2024-01-30T10:25:11;97208.75;;;6.25;38.38
84855;BME280;75112;42.668;23.356;2024-01-30T10:27:36;97184.28;;;6.90;35.33
84855;BME280;75112;42.668;23.356;2024-01-30T10:30:04;97177.50;;;7.08;36.23
84855;BME280;75112;42.668;23.356;2024-01-30T10:32:30;97198.34;;;7.64;35.85
84855;BME280;75112;42.668;23.356;2024-01-30T10:34:56;97174.50;;;7.23;35.57
84855;BME280;75112;42.668;23.356;2024-01-30T10:37:25;97195.00;;;6.45;37.97
84855;BME280;75112;42.668;23.356;2024-01-30T10:39:53;97149.56;;;7.43;35.20
84855;BME280;75112;42.668;23.356;2024-01-30T10:42:20;97199.94;;;8.12;34.29
84855;BME280;75112;42.668;23.356;2024-01-30T10:45:08;97193.28;;;8.56;34.07
84855;BME280;75112;42.668;23.356;2024-01-30T10:47:34;97189.25;;;8.34;34.08
84855;BME280;75112;42.668;23.356;2024-01-30T10:50:02;97175.84;;;7.07;35.17
84855;BME280;75112;42.668;23.356;2024-01-30T10:52:29;97160.03;;;7.02;35.10
84855;BME280;75112;42.668;23.356;2024-01-30T10:54:55;97195.09;;;6.84;36.82
84855;BME280;75112;42.668;23.356;2024-01-30T10:57:24;97183.56;;;6.68;37.10
84855;BME280;75112;42.668;23.356;2024-01-30T10:59:51;97169.34;;;7.32;36.11
84855;BME280;75112;42.668;23.356;2024-01-30T11:02:18;97159.81;;;7.99;34.78
84855;BME280;75112;42.668;23.356;2024-01-30T11:04:45;97150.47;;;7.61;34.96
84855;BME280;75112;42.668;23.356;2024-01-30T11:07:17;97170.38;;;6.52;36.22
84855;BME280;75112;42.668;23.356;2024-01-30T11:09:59;97152.94;;;7.14;36.70
84855;BME280;75112;42.668;23.356;2024-01-30T11:12:29;97144.44;;;6.84;36.55
84855;BME280;75112;42.668;23.356;2024-01-30T11:15:08;97156.34;;;6.76;36.75
84855;BME280;75112;42.668;23.356;2024-01-30T11:17:44;97162.88;;;6.30;37.34
84855;BME280;75112;42.668;23.356;2024-01-30T11:20:11;97164.44;;;5.81;37.68
84855;BME280;75112;42.668;23.356;2024-01-30T11:22:37;97151.19;;;7.05;37.99
84855;BME280;75112;42.668;23.356;2024-01-30T11:25:05;97170.06;;;7.81;35.75
84855;BME280;75112;42.668;23.356;2024-01-30T11:27:36;97157.28;;;7.13;36.06
84855;BME280;75112;42.668;23.356;2024-01-30T11:30:02;97131.97;;;6.99;36.52
84855;BME280;75112;42.668;23.356;2024-01-30T11:32:28;97132.63;;;6.03;37.19
84855;BME280;75112;42.668;23.356;2024-01-30T11:34:54;97152.84;;;6.17;38.18
84855;BME280;75112;42.668;23.356;2024-01-30T11:37:27;97153.63;;;5.87;37.92
84855;BME280;75112;42.668;23.356;2024-01-30T11:39:54;97157.66;;;6.51;35.46
84855;BME280;75112;42.668;23.356;2024-01-30T11:42:19;97155.81;;;6.91;36.27
84855;BME280;75112;42.668;23.356;2024-01-30T11:44:48;97158.47;;;5.80;37.15
84855;BME280;75112;42.668;23.356;2024-01-30T11:47:14;97158.13;;;5.22;38.87
84855;BME280;75112;42.668;23.356;2024-01-30T11:49:40;97159.81;;;5.74;38.53
84855;BME280;75112;42.668;23.356;2024-01-30T11:52:05;97131.47;;;3.83;40.12
84855;BME280;75112;42.668;23.356;2024-01-30T11:54:31;97151.59;;;4.65;40.42
84855;BME280;75112;42.668;23.356;2024-01-30T11:56:56;97132.13;;;4.94;40.31
84855;BME280;75112;42.668;23.356;2024-01-30T11:59:22;97123.25;;;6.32;38.05
84855;BME280;75112;42.668;23.356;2024-01-30T12:01:47;97138.53;;;7.50;35.52
84855;BME280;75112;42.668;23.356;2024-01-30T12:04:13;97113.34;;;7.34;35.03
84855;BME280;75112;42.668;23.356;2024-01-30T12:06:39;97113.72;;;7.49;35.13
84855;BME280;75112;42.668;23.356;2024-01-30T12:09:05;97114.06;;;7.27;35.10
84855;BME280;75112;42.668;23.356;2024-01-30T12:11:33;97124.13;;;6.72;35.77
84855;BME280;75112;42.668;23.356;2024-01-30T12:13:58;97111.34;;;7.28;36.91
84855;BME280;75112;42.668;23.356;2024-01-30T12:16:24;97110.97;;;7.70;35.02
84855;BME280;75112;42.668;23.356;2024-01-30T12:18:59;97108.50;;;7.22;36.86
84855;BME280;75112;42.668;23.356;2024-01-30T12:21:24;97118.44;;;5.26;39.03
84855;BME280;75112;42.668;23.356;2024-01-30T12:23:50;97090.09;;;5.27;39.25
84855;BME280;75112;42.668;23.356;2024-01-30T12:26:15;97090.81;;;5.39;39.62
84855;BME280;75112;42.668;23.356;2024-01-30T12:28:48;97084.31;;;5.96;38.56
84855;BME280;75112;42.668;23.356;2024-01-30T12:31:14;97105.69;;;6.76;36.74
84855;BME280;75112;42.668;23.356;2024-01-30T12:33:39;97066.97;;;7.44;37.62
84855;BME280;75112;42.668;23.356;2024-01-30T12:36:05;97096.13;;;7.35;35.13
84855;BME280;75112;42.668;23.356;2024-01-30T12:38:31;97070.00;;;7.20;35.38
84855;BME280;75112;42.668;23.356;2024-01-30T12:40:56;97091.56;;;6.22;37.51
84855;BME280;75112;42.668;23.356;2024-01-30T12:43:29;97090.91;;;6.98;36.51
84855;BME280;75112;42.668;23.356;2024-01-30T12:45:54;97079.47;;;8.04;34.34
84855;BME280;75112;42.668;23.356;2024-01-30T12:48:20;97078.31;;;7.89;34.74
84855;BME280;75112;42.668;23.356;2024-01-30T12:50:45;97068.00;;;8.34;33.71